createdAt,value
2023-04-16T00:00:58.820Z,244.65
2023-04-16T00:01:58.941Z,243.21
2023-04-16T00:02:58.922Z,242.47
2023-04-16T00:03:59.178Z,242.58
2023-04-16T00:04:58.783Z,239.87
2023-04-16T00:05:58.761Z,245.16
2023-04-16T00:06:58.728Z,244.05
2023-04-16T00:07:58.709Z,243.51
2023-04-16T00:08:58.669Z,241.76
2023-04-16T00:09:58.674Z,240.41
2023-04-16T00:10:58.642Z,241.86
2023-04-16T00:11:58.769Z,245.15
2023-04-16T00:12:58.625Z,238.27
2023-04-16T00:13:58.595Z,242.09
2023-04-16T00:14:58.577Z,242.77
2023-04-16T00:15:58.574Z,246.19
2023-04-16T00:16:58.586Z,244.96
2023-04-16T00:17:58.562Z,240.85
2023-04-16T00:18:58.522Z,245.36
2023-04-16T00:19:58.509Z,242.48
2023-04-16T00:20:58.477Z,245.03
2023-04-16T00:21:58.465Z,239.81
2023-04-16T00:22:58.459Z,241.35
2023-04-16T00:23:58.458Z,244.85
2023-04-16T00:24:58.459Z,239.15
2023-04-16T00:25:58.467Z,239.02
2023-04-16T00:26:58.455Z,245.84
2023-04-16T00:27:58.450Z,242.30
2023-04-16T00:28:58.460Z,239.35
2023-04-16T00:29:58.438Z,239.63
2023-04-16T00:30:58.444Z,239.83
2023-04-16T00:31:58.428Z,240.54
2023-04-16T00:32:58.470Z,244.51
2023-04-16T00:33:58.397Z,240.98
2023-04-16T00:34:58.375Z,246.12
2023-04-16T00:35:58.355Z,243.60
2023-04-16T00:36:58.348Z,243.74
2023-04-16T00:37:58.320Z,244.11
2023-04-16T00:38:58.310Z,244.43
2023-04-16T00:39:58.286Z,240.49
2023-04-16T00:40:58.264Z,242.27
2023-04-16T00:41:58.297Z,241.29
2023-04-16T00:42:58.233Z,243.71
2023-04-16T00:43:58.230Z,248.84
2023-04-16T00:44:58.205Z,245.51
2023-04-16T00:45:58.213Z,240.95
2023-04-16T00:46:58.171Z,243.63
2023-04-16T00:48:58.138Z,239.20
2023-04-16T00:49:58.131Z,245.18
2023-04-16T00:50:58.116Z,248.25
2023-04-16T00:51:58.101Z,240.16
2023-04-16T00:52:58.107Z,241.52
2023-04-16T00:53:58.070Z,242.53
2023-04-16T00:54:58.054Z,240.28
2023-04-16T00:55:58.038Z,240.59
2023-04-16T00:56:58.026Z,244.85
2023-04-16T00:57:58.024Z,246.94
2023-04-16T00:58:58.012Z,242.25
2023-04-16T00:59:57.973Z,241.68
2023-04-16T01:00:57.976Z,245.54
2023-04-16T01:01:58.039Z,245.10
2023-04-16T01:02:58.077Z,240.18
2023-04-16T01:03:58.053Z,242.30
2023-04-16T01:04:57.904Z,239.33
2023-04-16T01:05:57.883Z,244.79
2023-04-16T01:06:57.897Z,243.84
2023-04-16T01:07:57.888Z,244.93
2023-04-16T01:08:57.866Z,240.51
2023-04-16T01:09:57.872Z,241.96
2023-04-16T01:10:57.878Z,237.96
2023-04-16T01:11:57.881Z,243.99
2023-04-16T01:12:57.887Z,242.77
2023-04-16T01:13:57.902Z,246.55
2023-04-16T01:14:57.904Z,246.69
2023-04-16T01:15:57.964Z,241.21
2023-04-16T01:16:57.940Z,243.30
2023-04-16T01:17:58.069Z,241.98
2023-04-16T01:18:57.957Z,244.21
2023-04-16T01:19:57.968Z,241.80
2023-04-16T01:20:57.968Z,238.01
2023-04-16T01:21:57.974Z,247.16
2023-04-16T01:22:57.978Z,244.67
2023-04-16T01:23:58.005Z,246.39
2023-04-16T01:24:57.998Z,244.25
2023-04-16T01:25:58.008Z,246.00
2023-04-16T01:26:58.008Z,240.16
2023-04-16T01:27:58.015Z,240.85
2023-04-16T01:28:58.020Z,240.88
2023-04-16T01:29:58.003Z,243.89
2023-04-16T01:30:58.020Z,241.01
2023-04-16T01:31:58.022Z,241.68
2023-04-16T01:32:58.077Z,242.28
2023-04-16T01:33:58.037Z,238.09
2023-04-16T01:34:58.063Z,237.03
2023-04-16T01:35:58.050Z,246.86
2023-04-16T01:36:58.071Z,245.72
2023-04-16T01:37:58.060Z,241.03
2023-04-16T01:38:58.066Z,243.71
2023-04-16T01:39:58.095Z,243.44
2023-04-16T01:40:58.104Z,244.44
2023-04-16T01:41:58.112Z,243.32
2023-04-16T01:42:58.105Z,244.66
2023-04-16T01:43:58.121Z,240.91
2023-04-16T01:44:58.124Z,244.44
2023-04-16T01:45:58.128Z,245.32
2023-04-16T01:46:58.359Z,242.88
2023-04-16T01:47:58.231Z,244.34
2023-04-16T01:48:58.152Z,240.96
2023-04-16T01:49:58.153Z,244.51
2023-04-16T01:50:58.164Z,245.33
2023-04-16T01:51:58.309Z,244.41
2023-04-16T01:52:58.196Z,240.92
2023-04-16T01:53:58.212Z,240.99
2023-04-16T01:54:58.192Z,246.54
2023-04-16T01:55:58.204Z,239.54
2023-04-16T01:56:58.205Z,243.07
2023-04-16T01:57:58.212Z,239.75
2023-04-16T01:58:58.213Z,240.05
2023-04-16T01:59:58.209Z,241.27
2023-04-16T02:00:58.256Z,245.07
2023-04-16T02:01:58.262Z,243.45
2023-04-16T02:02:58.370Z,246.93
2023-04-16T02:03:58.397Z,245.27
2023-04-16T02:04:58.262Z,238.83
2023-04-16T02:05:58.236Z,239.04
2023-04-16T02:06:58.222Z,239.94
2023-04-16T02:07:58.205Z,240.78
2023-04-16T02:08:58.174Z,241.45
2023-04-16T02:09:58.183Z,243.60
2023-04-16T02:10:58.147Z,243.58
2023-04-16T02:11:58.132Z,243.79
2023-04-16T02:12:58.113Z,239.10
2023-04-16T02:13:58.102Z,241.75
2023-04-16T02:14:58.116Z,240.05
2023-04-16T02:15:58.085Z,245.03
2023-04-16T02:16:58.051Z,240.74
2023-04-16T02:17:58.068Z,243.76
2023-04-16T02:18:58.007Z,241.52
2023-04-16T02:19:58.013Z,246.68
2023-04-16T02:20:57.988Z,244.34
2023-04-16T02:21:57.981Z,243.64
2023-04-16T02:22:57.996Z,248.21
2023-04-16T02:23:58.019Z,243.26
2023-04-16T02:24:58.045Z,240.84
2023-04-16T02:25:58.075Z,238.10
2023-04-16T02:26:58.079Z,240.93
2023-04-16T02:27:58.090Z,244.86
2023-04-16T02:28:58.110Z,242.86
2023-04-16T02:29:58.135Z,242.49
2023-04-16T02:30:58.168Z,244.92
2023-04-16T02:31:58.207Z,242.84
2023-04-16T02:32:58.237Z,245.89
2023-04-16T02:33:58.202Z,241.47
2023-04-16T02:34:58.231Z,239.45
2023-04-16T02:35:58.238Z,243.03
2023-04-16T02:36:58.256Z,246.47
2023-04-16T02:37:58.257Z,246.48
2023-04-16T02:38:58.233Z,244.75
2023-04-16T02:39:58.225Z,241.96
2023-04-16T02:40:58.221Z,245.67
2023-04-16T02:41:58.212Z,241.82
2023-04-16T02:42:58.215Z,244.91
2023-04-16T02:43:58.191Z,227.41
2023-04-16T02:44:58.194Z,215.56
2023-04-16T02:45:58.226Z,215.84
2023-04-16T02:46:58.168Z,198.42
2023-04-16T02:47:58.219Z,174.35
2023-04-16T02:48:58.133Z,153.62
2023-04-16T02:49:58.120Z,139.83
2023-04-16T02:50:58.099Z,120.94
2023-04-16T02:51:58.082Z,108.17
2023-04-16T02:52:58.075Z,96.39
2023-04-16T02:53:58.054Z,78.91
2023-04-16T02:54:58.046Z,76.14
2023-04-16T02:55:58.021Z,63.66
2023-04-16T02:56:58.019Z,56.55
2023-04-16T02:57:58.015Z,50.95
2023-04-16T02:58:57.985Z,47.19
2023-04-16T02:59:57.983Z,42.42
2023-04-16T03:00:58.029Z,30.61
2023-04-16T03:01:58.206Z,25.99
2023-04-16T03:02:58.210Z,25.41
2023-04-16T03:03:58.182Z,22.77
2023-04-16T03:04:58.242Z,25.00
2023-04-16T03:05:58.290Z,25.08
2023-04-16T03:06:58.350Z,26.90
2023-04-16T03:07:58.417Z,24.61
2023-04-16T03:08:58.485Z,25.00
2023-04-16T03:09:58.529Z,25.90
2023-04-16T03:10:58.575Z,25.60
2023-04-16T03:11:58.637Z,25.46
2023-04-16T03:12:58.717Z,25.61
2023-04-16T03:13:58.756Z,25.00
2023-04-16T03:14:58.801Z,25.00
2023-04-16T03:15:58.884Z,25.00
2023-04-16T03:16:58.887Z,25.72
2023-04-16T03:17:58.953Z,25.71
2023-04-16T03:18:58.907Z,26.59
2023-04-16T03:19:58.924Z,25.31
2023-04-16T03:20:58.924Z,25.95
2023-04-16T03:21:58.917Z,26.02
2023-04-16T03:22:58.954Z,26.08
2023-04-16T03:23:58.941Z,27.03
2023-04-16T03:24:58.965Z,25.00
2023-04-16T03:25:58.954Z,25.09
2023-04-16T03:26:59.009Z,25.00
2023-04-16T03:27:58.988Z,27.30
2023-04-16T03:28:58.998Z,26.72
2023-04-16T03:29:58.997Z,25.54
2023-04-16T03:30:59.054Z,25.92
2023-04-16T03:31:59.012Z,25.00
2023-04-16T03:32:59.050Z,27.65
2023-04-16T03:33:59.026Z,29.46
2023-04-16T03:34:59.029Z,29.64
2023-04-16T03:35:59.017Z,28.78
2023-04-16T03:36:59.019Z,25.56
2023-04-16T03:37:59.037Z,25.00
2023-04-16T03:38:59.048Z,25.00
2023-04-16T03:39:59.044Z,26.92
2023-04-16T03:40:59.060Z,26.24
2023-04-16T03:41:59.040Z,26.61
2023-04-16T03:42:59.043Z,26.50
2023-04-16T03:43:59.056Z,25.00
2023-04-16T03:44:59.067Z,26.28
2023-04-16T03:45:59.057Z,26.74
2023-04-16T03:46:59.088Z,25.58
2023-04-16T03:47:59.145Z,24.53
2023-04-16T03:48:59.063Z,24.86
2023-04-16T03:49:59.058Z,20.93
2023-04-16T03:50:59.064Z,21.23
2023-04-16T03:51:59.068Z,21.57
2023-04-16T03:52:59.061Z,29.48
2023-04-16T03:53:59.056Z,27.68
2023-04-16T03:54:59.055Z,28.58
2023-04-16T03:55:59.033Z,27.91
2023-04-16T03:56:59.036Z,26.95
2023-04-16T03:57:59.031Z,27.94
2023-04-16T03:58:59.027Z,27.26
2023-04-16T03:59:59.080Z,24.85
2023-04-16T04:00:59.022Z,27.28
2023-04-16T04:01:59.070Z,26.14
2023-04-16T04:02:59.168Z,30.00
2023-04-16T04:03:59.148Z,31.00
2023-04-16T04:04:59.083Z,29.90
2023-04-16T04:05:58.998Z,32.19
2023-04-16T04:06:58.989Z,32.04
2023-04-16T04:07:58.984Z,30.94
2023-04-16T04:08:58.995Z,29.41
2023-04-16T04:09:58.972Z,32.56
2023-04-16T04:10:58.963Z,29.95
2023-04-16T04:11:58.965Z,28.14
2023-04-16T04:12:58.974Z,28.60
2023-04-16T04:13:58.970Z,28.97
2023-04-16T04:14:58.965Z,28.97
2023-04-16T04:15:59.024Z,29.21
2023-04-16T04:16:59.048Z,31.25
2023-04-16T04:17:59.085Z,32.11
2023-04-16T04:18:59.068Z,31.32
2023-04-16T04:20:01.331Z,31.00
2023-04-16T04:20:59.084Z,35.83
2023-04-16T04:21:59.084Z,31.71
2023-04-16T04:22:59.096Z,31.38
2023-04-16T04:23:59.087Z,30.99
2023-04-16T04:24:59.116Z,31.77
2023-04-16T04:25:59.110Z,31.57
2023-04-16T04:26:59.074Z,29.68
2023-04-16T04:27:59.072Z,29.40
2023-04-16T04:28:59.086Z,31.07
2023-04-16T04:29:59.083Z,30.88
2023-04-16T04:30:59.069Z,28.53
2023-04-16T04:31:59.126Z,29.42
2023-04-16T04:32:59.148Z,28.71
2023-04-16T04:33:59.071Z,29.78
2023-04-16T04:34:59.057Z,29.81
2023-04-16T04:35:59.088Z,29.29
2023-04-16T04:36:59.074Z,30.91
2023-04-16T04:37:59.054Z,30.59
2023-04-16T04:38:59.056Z,30.59
2023-04-16T04:39:59.064Z,30.21
2023-04-16T04:40:59.065Z,31.42
2023-04-16T04:41:59.055Z,32.60
2023-04-16T04:42:59.069Z,29.92
2023-04-16T04:43:59.102Z,33.10
2023-04-16T04:44:59.064Z,29.21
2023-04-16T04:45:59.141Z,29.29
2023-04-16T04:46:59.060Z,27.76
2023-04-16T04:47:59.132Z,29.60
2023-04-16T04:48:59.070Z,25.34
2023-04-16T04:49:59.057Z,27.18
2023-04-16T04:50:59.069Z,25.30
2023-04-16T04:51:59.087Z,25.30
2023-04-16T04:52:59.084Z,21.52
2023-04-16T04:53:59.070Z,21.15
2023-04-16T04:54:59.073Z,20.87
2023-04-16T04:56:09.227Z,18.62
2023-04-16T04:57:00.077Z,19.69
2023-04-16T04:57:59.067Z,19.36
2023-04-16T04:58:59.079Z,19.24
2023-04-16T04:59:59.066Z,18.12
2023-04-16T05:00:59.102Z,18.84
2023-04-16T05:01:59.113Z,26.19
2023-04-16T05:02:59.110Z,26.62
2023-04-16T05:03:59.150Z,27.11
2023-04-16T05:04:59.094Z,30.30
2023-04-16T05:05:59.091Z,27.41
2023-04-16T05:06:59.045Z,29.48
2023-04-16T05:07:59.034Z,29.20
2023-04-16T05:08:59.035Z,28.22
2023-04-16T05:09:59.039Z,27.84
2023-04-16T05:10:59.047Z,30.43
2023-04-16T05:11:59.038Z,33.28
2023-04-16T05:12:59.046Z,32.99
2023-04-16T05:13:59.104Z,32.36
2023-04-16T05:14:59.130Z,35.79
2023-04-16T05:15:59.176Z,38.36
2023-04-16T05:16:59.366Z,37.06
2023-04-16T05:17:59.295Z,39.40
2023-04-16T05:18:59.316Z,39.40
2023-04-16T05:19:59.359Z,40.96
2023-04-16T05:20:59.398Z,42.44
2023-04-16T05:21:59.454Z,40.85
2023-04-16T05:22:59.507Z,42.74
2023-04-16T05:23:59.560Z,43.29
2023-04-16T05:24:59.614Z,46.24
2023-04-16T05:25:59.666Z,48.24
2023-04-16T05:26:59.722Z,48.53
2023-04-16T05:27:59.774Z,45.68
2023-04-16T05:28:59.820Z,48.66
2023-04-16T05:29:59.871Z,50.33
2023-04-16T05:30:59.932Z,52.67
2023-04-16T05:31:59.964Z,51.69
2023-04-16T05:33:00.117Z,50.30
2023-04-16T05:34:00.049Z,52.41
2023-04-16T05:35:00.119Z,54.22
2023-04-16T05:36:00.176Z,51.38
2023-04-16T05:37:00.155Z,51.49
2023-04-16T05:38:00.159Z,51.89
2023-04-16T05:39:00.166Z,52.17
2023-04-16T05:40:00.244Z,54.04
2023-04-16T05:41:00.158Z,55.25
2023-04-16T05:42:00.192Z,58.41
2023-04-16T05:43:00.168Z,58.30
2023-04-16T05:44:00.174Z,58.05
2023-04-16T05:45:00.176Z,58.95
2023-04-16T05:46:00.304Z,61.50
2023-04-16T05:47:00.190Z,61.35
2023-04-16T05:48:00.321Z,62.89
2023-04-16T05:49:00.207Z,62.96
2023-04-16T05:50:00.215Z,63.72
2023-04-16T05:51:00.218Z,65.63
2023-04-16T05:52:00.210Z,67.57
2023-04-16T05:53:00.226Z,72.35
2023-04-16T05:54:00.257Z,73.27
2023-04-16T05:55:00.221Z,72.51
2023-04-16T05:56:00.213Z,73.93
2023-04-16T05:57:00.212Z,80.12
2023-04-16T05:58:00.231Z,83.08
2023-04-16T05:59:00.214Z,83.91
2023-04-16T06:00:00.277Z,85.25
2023-04-16T06:01:00.274Z,82.60
2023-04-16T06:02:00.354Z,85.60
2023-04-16T06:03:00.486Z,86.70
2023-04-16T06:04:00.509Z,86.78
2023-04-16T06:05:00.472Z,89.49
2023-04-16T06:06:00.596Z,90.57
2023-04-16T06:07:00.558Z,89.85
2023-04-16T06:08:00.617Z,87.52
2023-04-16T06:09:00.675Z,86.93
2023-04-16T06:10:00.723Z,84.37
2023-04-16T06:11:00.756Z,84.17
2023-04-16T06:12:00.800Z,83.25
2023-04-16T06:13:00.852Z,83.64
2023-04-16T06:14:00.905Z,81.05
2023-04-16T06:15:00.933Z,82.00
2023-04-16T06:16:00.993Z,79.41
2023-04-16T06:17:01.019Z,78.04
2023-04-16T06:18:01.181Z,79.53
2023-04-16T06:19:01.120Z,80.42
2023-04-16T06:20:01.147Z,81.00
2023-04-16T06:21:01.194Z,77.08
2023-04-16T06:22:01.299Z,77.06
2023-04-16T06:23:01.330Z,79.36
2023-04-16T06:24:01.427Z,77.43
2023-04-16T06:25:01.439Z,75.23
2023-04-16T06:26:01.501Z,73.88
2023-04-16T06:27:01.675Z,72.49
2023-04-16T06:28:01.624Z,72.84
2023-04-16T06:29:01.692Z,72.14
2023-04-16T06:30:01.768Z,70.99
2023-04-16T06:31:01.935Z,71.81
2023-04-16T06:32:01.877Z,71.35
2023-04-16T06:33:01.972Z,72.97
2023-04-16T06:34:02.000Z,70.71
2023-04-16T06:35:02.063Z,71.08
2023-04-16T06:36:02.183Z,69.68
2023-04-16T06:37:02.164Z,70.79
2023-04-16T06:38:02.228Z,67.16
2023-04-16T06:39:02.290Z,67.41
2023-04-16T06:40:02.350Z,67.12
2023-04-16T06:41:02.380Z,65.96
2023-04-16T06:42:02.445Z,64.81
2023-04-16T06:43:02.466Z,67.21
2023-04-16T06:44:02.518Z,64.76
2023-04-16T06:45:02.575Z,66.57
2023-04-16T06:46:02.668Z,67.50
2023-04-16T06:47:02.780Z,65.05
2023-04-16T06:48:02.748Z,62.00
2023-04-16T06:49:02.758Z,59.05
2023-04-16T06:50:02.835Z,59.56
2023-04-16T06:51:02.881Z,57.30
2023-04-16T06:52:05.717Z,56.33
2023-04-16T06:53:02.937Z,55.27
2023-04-16T06:54:02.940Z,52.52
2023-04-16T06:55:02.970Z,52.26
2023-04-16T06:56:02.961Z,48.58
2023-04-16T06:57:02.953Z,47.98
2023-04-16T06:58:02.963Z,49.45
2023-04-16T06:59:02.968Z,47.69
2023-04-16T07:00:02.971Z,46.01
2023-04-16T07:01:02.999Z,46.49
2023-04-16T07:02:03.023Z,47.17
2023-04-16T07:03:03.126Z,45.35
2023-04-16T07:04:03.055Z,44.75
2023-04-16T07:05:02.991Z,46.54
2023-04-16T07:06:02.995Z,44.76
2023-04-16T07:07:02.997Z,43.39
2023-04-16T07:08:03.019Z,45.23
2023-04-16T07:09:02.997Z,43.48
2023-04-16T07:10:03.032Z,44.66
2023-04-16T07:11:03.001Z,47.26
2023-04-16T07:12:03.005Z,48.30
2023-04-16T07:13:03.012Z,46.98
2023-04-16T07:14:03.004Z,46.99
2023-04-16T07:15:03.007Z,42.79
2023-04-16T07:16:03.044Z,39.32
2023-04-16T07:17:03.018Z,41.62
2023-04-16T07:18:03.040Z,40.25
2023-04-16T07:19:02.988Z,39.93
2023-04-16T07:20:03.010Z,40.57
2023-04-16T07:21:03.010Z,37.94
2023-04-16T07:22:03.021Z,40.38
2023-04-16T07:23:02.998Z,42.65
2023-04-16T07:24:02.997Z,42.59
2023-04-16T07:25:03.028Z,41.50
2023-04-16T07:26:03.087Z,38.55
2023-04-16T07:27:03.143Z,39.72
2023-04-16T07:28:03.187Z,37.99
2023-04-16T07:29:03.255Z,38.62
2023-04-16T07:30:03.307Z,38.20
2023-04-16T07:31:03.375Z,37.98
2023-04-16T07:32:03.467Z,37.01
2023-04-16T07:33:03.480Z,36.52
2023-04-16T07:34:03.504Z,39.20
2023-04-16T07:35:03.573Z,38.83
2023-04-16T07:36:03.609Z,37.17
2023-04-16T07:37:03.680Z,38.02
2023-04-16T07:38:03.709Z,36.82
2023-04-16T07:39:03.778Z,35.04
2023-04-16T07:40:03.824Z,36.28
2023-04-16T07:41:03.876Z,36.56
2023-04-16T07:42:03.934Z,36.13
2023-04-16T07:43:03.918Z,36.09
2023-04-16T07:44:03.916Z,35.43
2023-04-16T07:45:03.914Z,33.97
2023-04-16T07:46:04.033Z,36.25
2023-04-16T07:47:05.383Z,37.71
2023-04-16T07:48:03.956Z,36.05
2023-04-16T07:49:03.904Z,36.70
2023-04-16T07:50:03.916Z,36.57
2023-04-16T07:51:03.918Z,37.62
2023-04-16T07:52:03.912Z,37.31
2023-04-16T07:53:03.941Z,35.85
2023-04-16T07:54:03.990Z,33.19
2023-04-16T07:55:04.052Z,33.84
2023-04-16T07:56:04.135Z,33.35
2023-04-16T07:57:04.181Z,34.29
2023-04-16T07:58:04.269Z,35.72
2023-04-16T07:59:14.861Z,35.16
2023-04-16T08:00:05.337Z,35.24
2023-04-16T08:01:04.356Z,35.32
2023-04-16T08:02:04.446Z,36.03
2023-04-16T08:03:04.532Z,36.34
2023-04-16T08:04:04.506Z,39.05
2023-04-16T08:05:04.463Z,39.25
2023-04-16T08:06:04.414Z,38.18
2023-04-16T08:07:04.408Z,40.48
2023-04-16T08:08:04.403Z,37.77
2023-04-16T08:09:04.419Z,40.38
2023-04-16T08:10:04.458Z,38.68
2023-04-16T08:11:04.549Z,41.30
2023-04-16T08:12:04.607Z,39.94
2023-04-16T08:13:04.676Z,40.55
2023-04-16T08:14:04.752Z,39.31
2023-04-16T08:15:04.808Z,40.21
2023-04-16T08:16:04.926Z,42.28
2023-04-16T08:17:04.961Z,44.89
2023-04-16T08:18:05.070Z,45.15
2023-04-16T08:19:05.068Z,43.39
2023-04-16T08:20:05.150Z,44.27
2023-04-16T08:21:05.210Z,45.62
2023-04-16T08:22:05.283Z,44.44
2023-04-16T08:23:05.346Z,45.28
2023-04-16T08:24:05.425Z,43.96
2023-04-16T08:25:05.489Z,44.23
2023-04-16T08:26:05.563Z,44.03
2023-04-16T08:27:17.871Z,46.18
2023-04-16T08:28:06.626Z,44.70
2023-04-16T08:29:05.634Z,45.35
2023-04-16T08:30:05.635Z,46.39
2023-04-16T08:31:05.712Z,45.23
2023-04-16T08:32:05.652Z,44.37
2023-04-16T08:33:05.725Z,43.97
2023-04-16T08:34:05.678Z,43.84
2023-04-16T08:35:05.682Z,45.97
2023-04-16T08:36:05.688Z,45.56
2023-04-16T08:37:05.718Z,46.40
2023-04-16T08:38:05.778Z,44.32
2023-04-16T08:39:05.835Z,44.43
2023-04-16T08:40:05.892Z,45.29
2023-04-16T08:41:05.983Z,44.60
2023-04-16T08:42:06.095Z,46.89
2023-04-16T08:43:06.069Z,46.72
2023-04-16T08:44:06.122Z,46.91
2023-04-16T08:45:06.180Z,45.83
2023-04-16T08:46:06.329Z,47.42
2023-04-16T08:47:06.417Z,56.57
2023-04-16T08:48:06.362Z,63.48
2023-04-16T08:49:06.409Z,67.25
2023-04-16T08:50:06.474Z,75.20
2023-04-16T08:51:06.541Z,82.83
2023-04-16T08:52:06.630Z,88.82
2023-04-16T08:53:06.659Z,97.37
2023-04-16T08:54:06.718Z,102.23
2023-04-16T08:55:06.778Z,106.69
2023-04-16T08:56:06.820Z,108.45
2023-04-16T08:57:06.854Z,114.81
2023-04-16T08:58:06.896Z,121.24
2023-04-16T08:59:07.061Z,130.02
2023-04-16T09:00:06.976Z,135.31
2023-04-16T09:01:07.033Z,141.05
2023-04-16T09:02:07.140Z,143.97
2023-04-16T09:03:07.252Z,150.73
2023-04-16T09:04:07.295Z,157.38
2023-04-16T09:05:07.112Z,164.04
2023-04-16T09:06:07.165Z,167.99
2023-04-16T09:07:07.149Z,170.34
2023-04-16T09:08:07.163Z,175.57
2023-04-16T09:09:07.250Z,180.99
2023-04-16T09:10:07.164Z,183.94
2023-04-16T09:11:07.165Z,187.06
2023-04-16T09:12:07.170Z,190.48
2023-04-16T09:13:07.176Z,196.57
2023-04-16T09:14:07.174Z,199.17
2023-04-16T09:15:07.190Z,202.40
2023-04-16T09:16:07.234Z,202.98
2023-04-16T09:17:07.214Z,206.99
2023-04-16T09:18:07.233Z,211.19
2023-04-16T09:19:07.317Z,217.15
2023-04-16T09:20:07.289Z,219.98
2023-04-16T09:21:07.354Z,222.83
2023-04-16T09:22:07.359Z,224.56
2023-04-16T09:23:07.397Z,226.95
2023-04-16T09:24:07.452Z,229.48
2023-04-16T09:25:07.487Z,232.18
2023-04-16T09:26:07.528Z,236.00
2023-04-16T09:27:07.544Z,239.38
2023-04-16T09:28:07.639Z,240.55
2023-04-16T09:29:07.778Z,242.50
2023-04-16T09:30:07.721Z,245.50
2023-04-16T09:31:07.774Z,245.08
2023-04-16T09:32:07.908Z,248.79
2023-04-16T09:33:07.908Z,249.93
2023-04-16T09:34:07.985Z,249.66
2023-04-16T09:35:08.037Z,249.71
2023-04-16T09:36:08.115Z,249.61
2023-04-16T09:37:08.177Z,249.80
2023-04-16T09:38:08.235Z,249.89
2023-04-16T09:39:08.474Z,250.00
2023-04-16T09:40:08.346Z,249.79
2023-04-16T09:41:08.443Z,249.16
2023-04-16T09:42:08.460Z,249.38
2023-04-16T09:43:08.531Z,249.13
2023-04-16T09:44:08.596Z,250.24
2023-04-16T09:45:08.629Z,249.32
2023-04-16T09:46:08.776Z,249.52
2023-04-16T09:47:08.731Z,249.55
2023-04-16T09:48:08.758Z,250.00
2023-04-16T09:49:09.172Z,249.39
2023-04-16T09:50:10.471Z,248.29
2023-04-16T09:51:08.861Z,247.48
2023-04-16T09:52:08.856Z,250.00
2023-04-16T09:53:08.843Z,250.00
2023-04-16T09:54:08.866Z,250.00
2023-04-16T09:55:08.821Z,248.27
2023-04-16T09:56:08.820Z,246.95
2023-04-16T09:57:08.817Z,248.24
2023-04-16T09:58:08.781Z,250.00
2023-04-16T09:59:09.017Z,249.40
2023-04-16T10:00:08.772Z,249.72
2023-04-16T10:01:08.787Z,246.71
2023-04-16T10:02:15.326Z,249.29
2023-04-16T10:03:09.782Z,249.49
2023-04-16T10:04:08.829Z,249.47
2023-04-16T10:05:08.726Z,249.33
2023-04-16T10:06:08.719Z,248.95
2023-04-16T10:07:08.710Z,252.11
2023-04-16T10:08:08.693Z,248.85
2023-04-16T10:09:08.987Z,249.00
2023-04-16T10:10:08.699Z,249.52
2023-04-16T10:11:08.672Z,249.16
2023-04-16T10:12:08.667Z,249.90
2023-04-16T10:13:08.664Z,249.28
2023-04-16T10:14:08.653Z,249.75
2023-04-16T10:15:08.650Z,248.28
2023-04-16T10:16:08.638Z,244.38
2023-04-16T10:17:08.676Z,245.34
2023-04-16T10:18:08.707Z,242.46
2023-04-16T10:19:08.860Z,247.21
2023-04-16T10:20:08.590Z,247.36
2023-04-16T10:21:08.602Z,247.90
2023-04-16T10:22:08.570Z,247.90
2023-04-16T10:23:08.560Z,249.08
2023-04-16T10:24:08.546Z,246.00
2023-04-16T10:25:08.538Z,246.09
2023-04-16T10:26:08.508Z,247.31
2023-04-16T10:27:08.496Z,246.32
2023-04-16T10:28:08.501Z,247.67
2023-04-16T10:29:08.628Z,245.32
2023-04-16T10:30:08.454Z,247.96
2023-04-16T10:31:08.484Z,244.67
2023-04-16T10:32:08.420Z,245.16
2023-04-16T10:33:08.421Z,248.52
2023-04-16T10:34:08.367Z,250.53
2023-04-16T10:35:08.346Z,248.15
2023-04-16T10:36:08.340Z,246.82
2023-04-16T10:37:08.327Z,247.87
2023-04-16T10:38:08.307Z,248.41
2023-04-16T10:39:08.362Z,245.62
2023-04-16T10:40:08.272Z,245.76
2023-04-16T10:41:08.265Z,245.93
2023-04-16T10:42:08.265Z,246.88
2023-04-16T10:43:08.236Z,246.95
2023-04-16T10:44:08.244Z,246.97
2023-04-16T10:45:08.231Z,246.79
2023-04-16T10:46:08.218Z,247.90
2023-04-16T10:47:08.184Z,248.70
2023-04-16T10:48:08.156Z,245.26
2023-04-16T10:49:08.342Z,245.86
2023-04-16T10:50:08.141Z,247.94
2023-04-16T10:51:08.165Z,246.26
2023-04-16T10:52:08.128Z,246.17
2023-04-16T10:53:08.118Z,246.99
2023-04-16T10:54:08.098Z,246.99
2023-04-16T10:55:08.108Z,247.23
2023-04-16T10:56:08.077Z,246.01
2023-04-16T10:57:08.084Z,246.66
2023-04-16T10:58:08.047Z,246.87
2023-04-16T10:59:08.176Z,246.94
2023-04-16T11:00:08.008Z,247.43
2023-04-16T11:01:07.993Z,247.64
2023-04-16T11:02:08.049Z,250.41
2023-04-16T11:03:08.061Z,247.78
2023-04-16T11:04:08.101Z,247.97
2023-04-16T11:05:07.940Z,245.65
2023-04-16T11:06:07.923Z,249.64
2023-04-16T11:07:07.912Z,245.63
2023-04-16T11:08:07.904Z,248.93
2023-04-16T11:09:07.875Z,247.69
2023-04-16T11:10:07.862Z,248.94
2023-04-16T11:11:07.858Z,248.85
2023-04-16T11:12:07.910Z,249.10
2023-04-16T11:13:07.974Z,248.67
2023-04-16T11:14:08.036Z,250.00
2023-04-16T11:15:08.117Z,249.03
2023-04-16T11:16:08.177Z,248.99
2023-04-16T11:17:08.206Z,248.69
2023-04-16T11:18:08.315Z,248.77
2023-04-16T11:19:08.407Z,248.13
2023-04-16T11:20:19.987Z,249.03
2023-04-16T11:21:09.384Z,249.13
2023-04-16T11:22:08.344Z,249.05
2023-04-16T11:23:08.333Z,249.49
2023-04-16T11:24:08.314Z,249.69
2023-04-16T11:25:08.313Z,249.41
2023-04-16T11:26:08.284Z,249.73
2023-04-16T11:27:08.288Z,248.85
2023-04-16T11:28:08.287Z,248.14
2023-04-16T11:29:08.467Z,247.85
2023-04-16T11:30:08.400Z,247.50
2023-04-16T11:31:08.532Z,248.80
2023-04-16T11:32:08.515Z,247.07
2023-04-16T11:33:08.554Z,248.22
2023-04-16T11:34:08.619Z,247.66
2023-04-16T11:35:08.659Z,248.99
2023-04-16T11:36:08.725Z,247.97
2023-04-16T11:37:08.775Z,248.07
2023-04-16T11:38:08.851Z,247.82
2023-04-16T11:39:09.078Z,248.92
2023-04-16T11:40:08.929Z,247.99
2023-04-16T11:41:08.936Z,248.08
2023-04-16T11:42:08.957Z,248.25
2023-04-16T11:43:08.878Z,248.54
2023-04-16T11:44:08.850Z,247.32
2023-04-16T11:45:08.852Z,248.40
2023-04-16T11:46:20.585Z,249.19
2023-04-16T11:47:09.847Z,249.29
2023-04-16T11:48:10.658Z,249.25
2023-04-16T11:49:09.130Z,248.32
2023-04-16T11:50:08.817Z,248.90
2023-04-16T11:51:08.866Z,248.58
2023-04-16T11:52:08.906Z,248.99
2023-04-16T11:53:08.969Z,249.29
2023-04-16T11:54:11.687Z,247.96
2023-04-16T11:55:08.984Z,247.57
2023-04-16T11:56:08.959Z,245.75
2023-04-16T11:57:08.963Z,245.89
2023-04-16T11:58:08.947Z,245.03
2023-04-16T11:59:09.255Z,246.08
2023-04-16T12:00:10.569Z,247.40
2023-04-16T12:01:08.901Z,246.39
2023-04-16T12:02:08.913Z,245.87
2023-04-16T12:03:08.967Z,245.61
2023-04-16T12:04:09.136Z,244.33
2023-04-16T12:05:08.909Z,244.84
2023-04-16T12:06:08.818Z,245.15
2023-04-16T12:07:08.790Z,246.03
2023-04-16T12:08:08.805Z,246.33
2023-04-16T12:09:09.071Z,244.68
2023-04-16T12:10:08.785Z,246.78
2023-04-16T12:11:08.859Z,245.02
2023-04-16T12:12:08.899Z,246.06
2023-04-16T12:13:09.000Z,245.42
2023-04-16T12:14:09.004Z,244.88
2023-04-16T12:15:09.082Z,245.49
2023-04-16T12:16:09.117Z,244.66
2023-04-16T12:17:09.207Z,244.44
2023-04-16T12:18:09.243Z,244.85
2023-04-16T12:19:09.594Z,243.73
2023-04-16T12:20:09.282Z,245.69
2023-04-16T12:21:09.317Z,244.61
2023-04-16T12:22:09.374Z,246.01
2023-04-16T12:23:09.406Z,244.48
2023-04-16T12:24:09.456Z,244.44
2023-04-16T12:25:09.535Z,245.29
2023-04-16T12:26:09.558Z,245.69
2023-04-16T12:27:09.609Z,245.40
2023-04-16T12:28:09.681Z,245.35
2023-04-16T12:29:10.022Z,245.16
2023-04-16T12:30:09.763Z,245.17
2023-04-16T12:31:09.873Z,245.85
2023-04-16T12:32:09.870Z,245.72
2023-04-16T12:33:09.936Z,245.15
2023-04-16T12:34:09.956Z,244.21
2023-04-16T12:35:10.007Z,245.06
2023-04-16T12:36:10.067Z,245.72
2023-04-16T12:37:10.136Z,245.41
2023-04-16T12:38:10.182Z,246.75
2023-04-16T12:39:10.358Z,244.99
2023-04-16T12:40:10.295Z,244.56
2023-04-16T12:41:10.333Z,246.72